createdAt,value
2023-05-12T00:00:48.524Z,16.60
2023-05-12T00:01:51.147Z,16.60
2023-05-12T00:02:53.761Z,16.60
2023-05-12T00:03:56.974Z,16.60
2023-05-12T00:04:59.871Z,16.60
2023-05-12T00:06:04.437Z,16.60
2023-05-12T00:07:07.445Z,16.60
2023-05-12T00:08:10.330Z,16.60
2023-05-12T00:09:12.877Z,16.60
2023-05-12T00:10:15.441Z,16.60
2023-05-12T00:11:18.125Z,16.60
2023-05-12T00:12:20.721Z,16.60
2023-05-12T00:13:24.229Z,16.60
2023-05-12T00:14:26.876Z,16.50
2023-05-12T00:15:29.470Z,16.50
2023-05-12T00:16:32.141Z,16.60
2023-05-12T00:17:34.854Z,16.60
2023-05-12T00:18:37.517Z,16.60
2023-05-12T00:19:43.881Z,16.50
2023-05-12T00:20:46.549Z,16.50
2023-05-12T00:21:49.135Z,16.50
2023-05-12T00:22:51.766Z,16.50
2023-05-12T00:23:54.338Z,16.50
2023-05-12T00:24:57.034Z,16.40
2023-05-12T00:25:59.699Z,16.50
2023-05-12T00:27:02.359Z,16.40
2023-05-12T00:28:05.426Z,16.40
2023-05-12T00:29:08.200Z,16.40
2023-05-12T00:30:11.718Z,16.40
2023-05-12T00:31:14.381Z,16.30
2023-05-12T00:32:17.191Z,16.40
2023-05-12T00:33:19.894Z,16.30
2023-05-12T00:34:22.462Z,16.30
2023-05-12T00:35:25.051Z,16.30
2023-05-12T00:36:28.101Z,16.30
2023-05-12T00:37:30.659Z,16.30
2023-05-12T00:38:34.578Z,16.30
2023-05-12T00:39:38.063Z,16.30
2023-05-12T00:40:41.472Z,16.20
2023-05-12T00:41:44.560Z,16.20
2023-05-12T00:42:47.121Z,16.20
2023-05-12T00:43:49.745Z,16.20
2023-05-12T00:44:52.312Z,16.20
2023-05-12T00:45:55.005Z,16.20
2023-05-12T00:46:57.893Z,16.20
2023-05-12T00:48:00.544Z,16.20
2023-05-12T00:49:03.548Z,16.10
2023-05-12T00:50:08.452Z,16.10
2023-05-12T00:51:13.606Z,16.10
2023-05-12T00:52:16.257Z,16.10
2023-05-12T00:53:18.904Z,16.10
2023-05-12T00:54:22.113Z,16.00
2023-05-12T00:55:25.924Z,16.00
2023-05-12T00:56:29.009Z,16.00
2023-05-12T00:57:32.487Z,16.00
2023-05-12T00:58:35.214Z,16.00
2023-05-12T00:59:37.930Z,15.90
2023-05-12T01:00:40.961Z,15.90
2023-05-12T01:01:44.107Z,15.90
2023-05-12T01:02:47.751Z,15.80
2023-05-12T01:03:51.239Z,15.90
2023-05-12T01:04:54.089Z,15.80
2023-05-12T01:06:13.192Z,15.80
2023-05-12T01:07:22.986Z,15.80
2023-05-12T01:08:27.100Z,15.80
2023-05-12T01:09:29.859Z,15.80
2023-05-12T01:10:33.933Z,15.80
2023-05-12T01:11:36.679Z,15.80
2023-05-12T01:12:40.012Z,15.80
2023-05-12T01:13:42.629Z,15.70
2023-05-12T01:14:45.371Z,15.70
2023-05-12T01:15:49.608Z,15.70
2023-05-12T01:16:55.009Z,15.70
2023-05-12T01:18:02.390Z,15.70
2023-05-12T01:19:10.813Z,15.70
2023-05-12T01:20:18.543Z,15.70
2023-05-12T01:21:21.370Z,15.70
2023-05-12T01:22:26.281Z,15.60
2023-05-12T01:23:40.463Z,15.60
2023-05-12T01:24:59.403Z,15.60
2023-05-12T01:26:10.568Z,15.60
2023-05-12T01:27:15.190Z,15.60
2023-05-12T01:28:18.589Z,15.50
2023-05-12T01:29:22.658Z,15.50
2023-05-12T01:30:26.925Z,15.50
2023-05-12T01:31:30.429Z,15.50
2023-05-12T01:32:33.738Z,15.50
2023-05-12T01:33:36.953Z,15.50
2023-05-12T01:34:41.173Z,15.40
2023-05-12T01:35:43.801Z,15.40
2023-05-12T01:36:46.416Z,15.40
2023-05-12T01:37:48.964Z,15.40
2023-05-12T01:38:51.945Z,15.40
2023-05-12T01:39:54.692Z,15.40
2023-05-12T01:40:57.465Z,15.40
2023-05-12T01:42:00.153Z,15.30
2023-05-12T01:43:02.722Z,15.30
2023-05-12T01:44:08.765Z,15.30
2023-05-12T01:45:11.819Z,15.20
2023-05-12T01:46:14.662Z,15.20
2023-05-12T01:47:18.211Z,15.20
2023-05-12T01:48:28.096Z,15.20
2023-05-12T01:49:32.596Z,15.20
2023-05-12T01:50:35.969Z,15.10
2023-05-12T01:51:41.486Z,15.10
2023-05-12T01:52:45.737Z,15.10
2023-05-12T01:53:50.282Z,15.10
2023-05-12T01:54:52.910Z,15.10
2023-05-12T01:55:56.011Z,15.10
2023-05-12T01:57:03.208Z,15.10
2023-05-12T01:58:05.936Z,15.00
2023-05-12T01:59:09.177Z,15.10
2023-05-12T02:00:12.950Z,15.00
2023-05-12T02:01:18.692Z,15.00
2023-05-12T02:02:21.399Z,15.00
2023-05-12T02:03:24.191Z,15.00
2023-05-12T02:04:27.230Z,14.90
2023-05-12T02:05:30.552Z,14.90
2023-05-12T02:06:33.439Z,14.90
2023-05-12T02:07:36.227Z,14.90
2023-05-12T02:08:38.832Z,14.90
2023-05-12T02:09:42.224Z,14.90
2023-05-12T02:10:44.997Z,14.80
2023-05-12T02:11:47.605Z,14.80
2023-05-12T02:12:50.545Z,14.90
2023-05-12T02:13:53.358Z,14.90
2023-05-12T02:14:58.897Z,14.80
2023-05-12T02:16:02.863Z,14.80
2023-05-12T02:17:05.717Z,14.90
2023-05-12T02:18:08.308Z,14.90
2023-05-12T02:19:11.009Z,14.80
2023-05-12T02:20:13.729Z,14.90
2023-05-12T02:21:16.375Z,14.90
2023-05-12T02:22:19.226Z,14.80
2023-05-12T02:23:25.048Z,14.80
2023-05-12T02:24:27.830Z,14.80
2023-05-12T02:25:30.488Z,14.80
2023-05-12T02:26:33.173Z,14.90
2023-05-12T02:27:35.942Z,14.80
2023-05-12T02:28:38.915Z,14.80
2023-05-12T02:29:42.109Z,14.80
2023-05-12T02:30:48.652Z,14.80
2023-05-12T02:31:51.611Z,14.80
2023-05-12T02:32:54.875Z,14.80
2023-05-12T02:33:58.849Z,14.70
2023-05-12T02:35:02.041Z,14.70
2023-05-12T02:36:05.818Z,14.70
2023-05-12T02:37:08.402Z,14.70
2023-05-12T02:38:12.075Z,14.70
2023-05-12T02:39:14.842Z,14.80
2023-05-12T02:40:17.533Z,14.70
2023-05-12T02:41:20.578Z,14.70
2023-05-12T02:42:23.339Z,14.70
2023-05-12T02:43:26.393Z,14.70
2023-05-12T02:44:29.322Z,14.70
2023-05-12T02:45:31.909Z,14.70
2023-05-12T02:46:34.624Z,14.70
2023-05-12T02:47:37.506Z,14.60
2023-05-12T02:48:40.514Z,14.70
2023-05-12T02:49:45.532Z,14.60
2023-05-12T02:50:48.740Z,14.60
2023-05-12T02:51:51.833Z,14.60
2023-05-12T02:52:54.631Z,14.50
2023-05-12T02:53:57.254Z,14.50
2023-05-12T02:54:59.860Z,14.40
2023-05-12T02:56:02.563Z,14.40
2023-05-12T02:57:06.736Z,14.40
2023-05-12T02:58:09.444Z,14.40
2023-05-12T02:59:12.241Z,14.30
2023-05-12T03:00:15.406Z,14.30
2023-05-12T03:01:18.273Z,14.30
2023-05-12T03:02:21.090Z,14.20
2023-05-12T03:03:23.924Z,14.20
2023-05-12T03:04:26.732Z,14.20
2023-05-12T03:05:29.561Z,14.10
2023-05-12T03:06:32.280Z,14.10
2023-05-12T03:07:35.366Z,14.10
2023-05-12T03:08:38.031Z,14.10
2023-05-12T03:09:40.695Z,14.10
2023-05-12T03:10:44.056Z,14.10
2023-05-12T03:11:46.712Z,14.00
2023-05-12T03:12:49.258Z,14.00
2023-05-12T03:13:51.846Z,14.00
2023-05-12T03:14:54.540Z,14.00
2023-05-12T03:16:01.304Z,14.00
2023-05-12T03:17:04.664Z,14.00
2023-05-12T03:18:07.348Z,13.90
2023-05-12T03:19:10.089Z,13.90
2023-05-12T03:20:13.005Z,13.90
2023-05-12T03:21:15.579Z,13.90
2023-05-12T03:22:18.568Z,13.90
2023-05-12T03:23:21.413Z,13.90
2023-05-12T03:24:24.034Z,13.90
2023-05-12T03:25:27.016Z,13.90
2023-05-12T03:26:29.589Z,13.90
2023-05-12T03:27:33.105Z,13.90
2023-05-12T03:28:35.844Z,13.90
2023-05-12T03:29:38.526Z,13.90
2023-05-12T03:30:41.081Z,13.90
2023-05-12T03:31:43.984Z,13.90
2023-05-12T03:32:47.438Z,13.90
2023-05-12T03:33:50.080Z,13.80
2023-05-12T03:34:52.619Z,13.90
2023-05-12T03:35:56.720Z,13.80
2023-05-12T03:36:59.652Z,13.80
2023-05-12T03:38:02.246Z,13.80
2023-05-12T03:39:05.083Z,13.80
2023-05-12T03:40:09.698Z,13.70
2023-05-12T03:41:12.458Z,13.70
2023-05-12T03:42:15.532Z,13.70
2023-05-12T03:43:18.373Z,13.70
2023-05-12T03:44:21.300Z,13.70
2023-05-12T03:45:24.024Z,13.70
2023-05-12T03:46:26.738Z,13.70
2023-05-12T03:47:29.455Z,13.70
2023-05-12T03:48:32.440Z,13.70
2023-05-12T03:49:35.066Z,13.70
2023-05-12T03:50:37.690Z,13.70
2023-05-12T03:51:41.253Z,13.70
2023-05-12T03:52:43.884Z,13.70
2023-05-12T03:53:47.836Z,13.70
2023-05-12T03:54:51.031Z,13.70
2023-05-12T03:55:53.650Z,13.80
2023-05-12T03:56:56.361Z,13.80
2023-05-12T03:57:59.278Z,13.80
2023-05-12T03:59:02.012Z,13.80
2023-05-12T04:00:05.976Z,13.80
2023-05-12T04:01:15.331Z,13.80
2023-05-12T04:02:18.032Z,13.90
2023-05-12T04:03:21.575Z,13.90
2023-05-12T04:04:24.341Z,13.90
2023-05-12T04:05:27.233Z,13.90
2023-05-12T04:06:30.300Z,14.00
2023-05-12T04:07:33.361Z,14.00
2023-05-12T04:08:35.961Z,14.00
2023-05-12T04:09:38.615Z,14.00
2023-05-12T04:10:42.304Z,14.10
2023-05-12T04:11:44.852Z,14.10
2023-05-12T04:12:47.498Z,14.10
2023-05-12T04:13:51.810Z,14.10
2023-05-12T04:14:54.404Z,14.20
2023-05-12T04:15:58.437Z,14.20
2023-05-12T04:17:01.000Z,14.20
2023-05-12T04:18:04.354Z,14.30
2023-05-12T04:19:07.657Z,14.30
2023-05-12T04:20:11.656Z,14.30
2023-05-12T04:21:14.700Z,14.30
2023-05-12T04:22:17.469Z,14.30
2023-05-12T04:23:20.082Z,14.40
2023-05-12T04:24:25.096Z,14.40
2023-05-12T04:25:27.711Z,14.50
2023-05-12T04:26:30.455Z,14.50
2023-05-12T04:27:33.174Z,14.50
2023-05-12T04:28:37.077Z,14.50
2023-05-12T04:29:39.739Z,14.60
2023-05-12T04:30:43.132Z,14.60
2023-05-12T04:31:45.832Z,14.50
2023-05-12T04:32:49.460Z,14.50
2023-05-12T04:33:52.617Z,14.50
2023-05-12T04:34:56.677Z,14.50
2023-05-12T04:35:59.800Z,14.50
2023-05-12T04:37:02.409Z,14.60
2023-05-12T04:38:05.918Z,14.60
2023-05-12T04:39:09.685Z,14.60
2023-05-12T04:40:12.729Z,14.60
2023-05-12T04:41:15.361Z,14.60
2023-05-12T04:42:18.229Z,14.60
2023-05-12T04:44:26.411Z,14.60
2023-05-12T04:45:29.028Z,14.60
2023-05-12T04:46:32.409Z,14.60
2023-05-12T04:47:36.104Z,14.60
2023-05-12T04:48:42.073Z,14.60
2023-05-12T04:49:45.244Z,14.60
2023-05-12T04:50:50.114Z,14.60
2023-05-12T04:51:52.684Z,14.70
2023-05-12T04:52:55.350Z,14.70
2023-05-12T04:53:58.189Z,14.60
2023-05-12T04:55:01.025Z,14.70
2023-05-12T04:56:04.072Z,14.70
2023-05-12T04:57:11.665Z,14.70
2023-05-12T04:58:14.328Z,14.70
2023-05-12T04:59:16.952Z,14.70
2023-05-12T05:00:21.223Z,14.80
2023-05-12T05:01:24.018Z,14.70
2023-05-12T05:02:28.039Z,14.80
2023-05-12T05:03:31.901Z,14.80
2023-05-12T05:04:35.524Z,14.80
2023-05-12T05:05:38.839Z,14.90
2023-05-12T05:06:41.686Z,14.90
2023-05-12T05:07:44.451Z,14.90
2023-05-12T05:08:47.655Z,15.00
2023-05-12T05:09:51.058Z,15.00
2023-05-12T05:10:53.904Z,15.10
2023-05-12T05:11:56.502Z,15.00
2023-05-12T05:12:59.311Z,15.10
2023-05-12T05:14:02.547Z,15.10
2023-05-12T05:15:05.821Z,15.20
2023-05-12T05:16:08.697Z,15.20
2023-05-12T05:17:12.404Z,15.20
2023-05-12T05:18:16.221Z,15.30
2023-05-12T05:19:23.306Z,15.30
2023-05-12T05:20:34.436Z,15.30
2023-05-12T05:21:37.497Z,15.40
2023-05-12T05:22:40.991Z,15.40
2023-05-12T05:23:43.958Z,15.40
2023-05-12T05:24:46.606Z,15.40
2023-05-12T05:25:49.239Z,15.50
2023-05-12T05:26:51.826Z,15.50
2023-05-12T05:27:55.813Z,15.50
2023-05-12T05:28:59.095Z,15.60
2023-05-12T05:30:02.048Z,15.60
2023-05-12T05:31:06.503Z,15.60
2023-05-12T05:32:09.132Z,15.70
2023-05-12T05:33:13.350Z,15.70
2023-05-12T05:34:16.606Z,15.60
2023-05-12T05:35:19.606Z,15.60
2023-05-12T05:36:26.517Z,15.70
2023-05-12T05:37:29.508Z,15.70
2023-05-12T05:38:32.790Z,15.80
2023-05-12T05:39:35.582Z,15.70
2023-05-12T05:40:51.547Z,15.80
2023-05-12T05:41:56.158Z,15.80
2023-05-12T05:42:58.849Z,15.90
2023-05-12T05:44:02.216Z,15.90
2023-05-12T05:45:06.469Z,15.90
2023-05-12T05:46:09.359Z,16.00
2023-05-12T05:47:12.131Z,16.00
2023-05-12T05:48:14.788Z,16.00
2023-05-12T05:49:17.468Z,16.00
2023-05-12T05:50:20.230Z,16.00
2023-05-12T05:51:23.271Z,16.00
2023-05-12T05:52:26.124Z,16.00
2023-05-12T05:53:29.143Z,16.10
2023-05-12T05:54:31.760Z,16.10
2023-05-12T05:55:35.265Z,16.10
2023-05-12T05:56:37.914Z,16.10
2023-05-12T05:57:40.547Z,16.20
2023-05-12T05:58:43.319Z,16.30
2023-05-12T05:59:45.991Z,16.30
2023-05-12T06:00:48.565Z,16.30
2023-05-12T06:01:51.207Z,16.30
2023-05-12T06:02:53.924Z,16.30
2023-05-12T06:03:57.672Z,16.30
2023-05-12T06:05:00.681Z,16.30
2023-05-12T06:06:03.751Z,16.40
2023-05-12T06:07:06.343Z,16.40
2023-05-12T06:08:13.340Z,16.50
2023-05-12T06:09:16.597Z,16.50
2023-05-12T06:10:21.583Z,16.50
2023-05-12T06:11:24.502Z,16.60
2023-05-12T06:12:27.094Z,16.60
2023-05-12T06:13:29.673Z,16.70
2023-05-12T06:14:32.281Z,16.70
2023-05-12T06:15:34.929Z,16.80
2023-05-12T06:16:37.846Z,16.80
2023-05-12T06:17:40.418Z,16.70
2023-05-12T06:18:43.993Z,16.80
2023-05-12T06:19:49.691Z,16.80
2023-05-12T06:20:52.225Z,16.80
2023-05-12T06:21:55.513Z,16.90
2023-05-12T06:22:58.150Z,16.90
2023-05-12T06:24:00.851Z,16.80
2023-05-12T06:25:03.923Z,16.80
2023-05-12T06:26:07.922Z,16.90
2023-05-12T06:27:11.341Z,16.80
2023-05-12T06:28:13.982Z,16.90
2023-05-12T06:29:16.889Z,17.00
2023-05-12T06:30:19.696Z,17.10
2023-05-12T06:31:31.196Z,17.20
2023-05-12T06:32:34.059Z,17.30
2023-05-12T06:33:37.218Z,17.30
2023-05-12T06:34:39.902Z,17.30
2023-05-12T06:35:52.265Z,17.40
2023-05-12T06:36:55.121Z,17.50
2023-05-12T06:37:57.982Z,17.50
2023-05-12T06:39:00.954Z,17.60
2023-05-12T06:40:04.157Z,17.60
2023-05-12T06:41:06.878Z,17.70
2023-05-12T06:42:10.148Z,17.70
2023-05-12T06:43:17.168Z,17.70
2023-05-12T06:44:21.368Z,17.80
2023-05-12T06:45:27.853Z,17.90
2023-05-12T06:46:30.534Z,18.00
2023-05-12T06:47:33.987Z,18.00
2023-05-12T06:48:36.660Z,18.00
2023-05-12T06:49:39.391Z,18.10
2023-05-12T06:50:42.444Z,18.10
2023-05-12T06:51:45.422Z,18.20
2023-05-12T06:52:48.303Z,18.30
2023-05-12T06:53:51.190Z,18.30
2023-05-12T06:54:53.825Z,18.40
2023-05-12T06:55:56.759Z,18.40
2023-05-12T06:56:59.877Z,18.50
2023-05-12T06:58:03.283Z,18.60
2023-05-12T06:59:06.099Z,18.60
2023-05-12T07:00:10.819Z,18.70
2023-05-12T07:01:13.507Z,18.70
2023-05-12T07:02:17.099Z,18.80
2023-05-12T07:03:19.716Z,18.90
2023-05-12T07:04:22.780Z,18.90
2023-05-12T07:05:25.876Z,19.00
2023-05-12T07:06:28.615Z,18.90
2023-05-12T07:07:31.203Z,19.00
2023-05-12T07:08:33.874Z,19.10
2023-05-12T07:09:36.535Z,19.10
2023-05-12T07:10:40.070Z,19.10
2023-05-12T07:11:42.879Z,19.10
2023-05-12T07:12:45.622Z,19.20
2023-05-12T07:13:50.300Z,19.30
2023-05-12T07:14:53.152Z,19.30
2023-05-12T07:15:55.843Z,19.30
2023-05-12T07:16:58.600Z,19.40
2023-05-12T07:18:01.237Z,19.40
2023-05-12T07:19:05.954Z,19.50
2023-05-12T07:20:10.038Z,19.60
2023-05-12T07:21:13.410Z,19.70
2023-05-12T07:22:16.236Z,19.70
2023-05-12T07:23:18.765Z,19.70
2023-05-12T07:24:21.367Z,19.80
2023-05-12T07:25:24.459Z,19.90
2023-05-12T07:26:29.114Z,19.90
2023-05-12T07:27:31.854Z,19.90
2023-05-12T07:28:36.600Z,20.00
2023-05-12T07:29:39.267Z,20.00
2023-05-12T07:30:41.834Z,20.10
2023-05-12T07:31:44.656Z,20.10
2023-05-12T07:32:47.508Z,20.20
2023-05-12T07:33:50.133Z,20.10
2023-05-12T07:34:53.400Z,20.10
2023-05-12T07:35:56.646Z,20.20
2023-05-12T07:37:01.582Z,20.20
2023-05-12T07:38:04.547Z,20.20
2023-05-12T07:39:07.155Z,20.30
2023-05-12T07:40:11.053Z,20.30
2023-05-12T07:41:15.512Z,20.40
2023-05-12T07:42:18.634Z,20.50
2023-05-12T07:43:21.493Z,20.50
2023-05-12T07:44:24.702Z,20.60
2023-05-12T07:45:27.343Z,20.70
2023-05-12T07:46:29.949Z,20.70
2023-05-12T07:47:32.536Z,20.70
2023-05-12T07:48:40.002Z,20.60
2023-05-12T07:49:42.756Z,20.50
2023-05-12T07:50:45.746Z,20.50
2023-05-12T07:51:48.374Z,20.50
2023-05-12T07:52:53.314Z,20.40
2023-05-12T07:53:56.555Z,20.40
2023-05-12T07:54:59.350Z,20.50
2023-05-12T07:56:02.808Z,20.50
2023-05-12T07:57:05.862Z,20.60
2023-05-12T07:58:08.465Z,20.70
2023-05-12T07:59:12.164Z,20.80
2023-05-12T08:00:15.796Z,20.90
2023-05-12T08:01:18.382Z,21.00
2023-05-12T08:02:21.148Z,21.10
2023-05-12T08:03:23.864Z,21.30
2023-05-12T08:04:26.520Z,21.50
2023-05-12T08:05:29.185Z,21.70
2023-05-12T08:06:31.774Z,21.70
2023-05-12T08:07:34.501Z,21.90
2023-05-12T08:08:37.165Z,22.10
2023-05-12T08:09:39.735Z,22.30
2023-05-12T08:10:45.054Z,22.50
2023-05-12T08:11:49.407Z,22.60
2023-05-12T08:12:53.928Z,22.70
2023-05-12T08:13:56.533Z,22.80
2023-05-12T08:14:59.932Z,22.90
2023-05-12T08:16:02.764Z,23.00
2023-05-12T08:17:05.663Z,23.10
2023-05-12T08:18:08.419Z,23.10
2023-05-12T08:19:14.466Z,23.10
2023-05-12T08:20:17.113Z,23.10
2023-05-12T08:21:19.744Z,23.20
2023-05-12T08:22:22.374Z,23.30
2023-05-12T08:23:24.971Z,23.20
2023-05-12T08:24:27.586Z,23.10
2023-05-12T08:25:30.727Z,23.00
2023-05-12T08:26:33.390Z,23.00
2023-05-12T08:27:36.168Z,23.00
2023-05-12T08:28:39.273Z,23.00
2023-05-12T08:29:41.905Z,23.00
2023-05-12T08:30:45.569Z,23.00
2023-05-12T08:31:48.520Z,23.10
2023-05-12T08:32:51.181Z,23.10
2023-05-12T08:34:09.141Z,23.10
2023-05-12T08:35:12.813Z,23.10
2023-05-12T08:36:15.666Z,23.20
2023-05-12T08:37:18.329Z,23.20
2023-05-12T08:38:21.366Z,23.20
2023-05-12T08:39:24.300Z,23.10
2023-05-12T08:40:30.566Z,23.00
2023-05-12T08:41:53.300Z,23.00
2023-05-12T08:43:26.403Z,23.00
2023-05-12T08:44:30.228Z,22.80
2023-05-12T08:45:34.530Z,22.70
2023-05-12T08:46:37.251Z,22.60
2023-05-12T08:47:41.914Z,22.40
2023-05-12T08:48:47.615Z,22.30
2023-05-12T08:50:00.859Z,22.20
2023-05-12T08:51:07.470Z,22.10
2023-05-12T08:52:12.046Z,22.00
2023-05-12T08:53:18.730Z,21.90
2023-05-12T08:54:22.776Z,21.90
2023-05-12T08:55:31.095Z,21.90
2023-05-12T08:57:45.793Z,22.00
2023-05-12T08:58:48.943Z,22.00
2023-05-12T08:59:56.678Z,22.10
2023-05-12T09:01:01.701Z,22.10
2023-05-12T09:02:05.741Z,22.10
2023-05-12T09:03:08.685Z,22.20
2023-05-12T09:04:11.304Z,22.20
2023-05-12T09:05:13.915Z,22.20
2023-05-12T09:06:17.247Z,22.10
2023-05-12T09:07:20.507Z,22.00
2023-05-12T09:08:25.326Z,21.90
2023-05-12T09:09:29.811Z,21.90
2023-05-12T09:10:35.632Z,21.80
2023-05-12T09:11:38.781Z,21.80
2023-05-12T09:12:44.266Z,21.80
2023-05-12T09:14:06.491Z,21.80
2023-05-12T09:15:16.178Z,21.80
2023-05-12T09:16:24.130Z,21.90
2023-05-12T09:17:27.024Z,21.70
2023-05-12T09:18:54.459Z,21.70
2023-05-12T09:19:57.186Z,21.70
2023-05-12T09:21:01.305Z,21.70
2023-05-12T09:22:04.021Z,21.70
2023-05-12T09:23:22.102Z,21.80
2023-05-12T09:24:54.322Z,21.80
2023-05-12T09:26:03.131Z,21.80
2023-05-12T09:27:11.200Z,21.80
2023-05-12T09:28:15.364Z,21.80
2023-05-12T09:29:30.820Z,21.90
2023-05-12T09:30:38.660Z,22.00
2023-05-12T09:31:53.365Z,22.00
2023-05-12T09:33:15.579Z,22.00
2023-05-12T09:34:19.430Z,22.00
2023-05-12T09:35:22.333Z,21.90
2023-05-12T09:36:25.830Z,21.90
2023-05-12T09:37:33.236Z,21.90
2023-05-12T09:38:36.027Z,21.80
2023-05-12T09:39:38.948Z,21.70
2023-05-12T09:40:43.199Z,21.80
2023-05-12T09:41:46.158Z,21.80
2023-05-12T09:42:49.868Z,21.80
2023-05-12T09:43:56.274Z,21.80
2023-05-12T09:45:12.033Z,21.90
2023-05-12T09:46:15.066Z,21.90
2023-05-12T09:47:17.957Z,21.90
2023-05-12T09:48:21.357Z,21.90
2023-05-12T09:49:28.930Z,21.90
2023-05-12T09:50:40.859Z,22.00
2023-05-12T09:51:59.526Z,22.10
2023-05-12T09:53:02.693Z,22.20
2023-05-12T09:54:07.601Z,22.20
2023-05-12T09:55:14.130Z,22.30
2023-05-12T09:56:18.002Z,22.30
2023-05-12T09:57:23.151Z,22.30
2023-05-12T09:58:28.358Z,22.30
2023-05-12T09:59:33.930Z,22.30
2023-05-12T10:00:58.663Z,22.30
2023-05-12T10:02:05.526Z,22.30
2023-05-12T10:03:15.371Z,22.30
2023-05-12T10:04:18.105Z,22.40
2023-05-12T10:05:22.317Z,22.50
2023-05-12T10:06:33.881Z,22.70
2023-05-12T10:07:37.411Z,22.70
2023-05-12T10:09:03.715Z,22.70
2023-05-12T10:10:08.159Z,22.70
2023-05-12T10:11:11.435Z,22.80
2023-05-12T10:12:14.347Z,22.80
2023-05-12T10:13:17.972Z,22.70
2023-05-12T10:14:23.141Z,22.70
2023-05-12T10:15:27.242Z,22.60
2023-05-12T10:16:30.558Z,22.60
2023-05-12T10:17:39.576Z,22.60
2023-05-12T10:18:46.825Z,22.70
2023-05-12T10:19:50.392Z,22.80
2023-05-12T10:20:54.015Z,22.80
2023-05-12T10:21:58.364Z,22.80
2023-05-12T10:23:02.267Z,22.80
2023-05-12T10:24:05.248Z,22.80
2023-05-12T10:25:09.724Z,22.80
2023-05-12T10:26:13.726Z,23.00
2023-05-12T10:27:17.402Z,23.00
2023-05-12T10:28:20.674Z,23.10
2023-05-12T10:29:30.325Z,23.20
2023-05-12T10:30:33.948Z,23.30
2023-05-12T10:31:38.534Z,23.30
2023-05-12T10:32:41.694Z,23.20
2023-05-12T10:33:44.337Z,23.20
2023-05-12T10:34:46.937Z,23.20
2023-05-12T10:35:52.066Z,23.20
2023-05-12T10:36:54.683Z,23.20
2023-05-12T10:38:11.959Z,23.20
2023-05-12T10:39:17.708Z,23.10
2023-05-12T10:40:26.808Z,23.00
2023-05-12T10:41:34.585Z,23.10
2023-05-12T10:42:43.304Z,23.00
2023-05-12T10:43:50.591Z,23.10
2023-05-12T10:44:56.709Z,23.10
2023-05-12T10:46:19.406Z,23.10
2023-05-12T10:47:29.437Z,23.20
2023-05-12T10:48:32.084Z,23.30
2023-05-12T10:49:41.998Z,23.40
2023-05-12T10:50:54.287Z,23.40
2023-05-12T10:52:01.028Z,23.40
2023-05-12T10:53:03.989Z,23.30
2023-05-12T10:54:08.303Z,23.20
2023-05-12T10:55:14.406Z,23.10
2023-05-12T10:56:28.552Z,23.00
2023-05-12T10:57:33.420Z,23.00
2023-05-12T10:58:36.830Z,22.80
2023-05-12T10:59:57.716Z,22.80
2023-05-12T11:01:07.096Z,22.80
2023-05-12T11:02:17.753Z,22.70
2023-05-12T11:03:25.842Z,22.70
2023-05-12T11:04:53.110Z,22.70
2023-05-12T11:06:04.931Z,22.70
2023-05-12T11:07:10.276Z,22.60
2023-05-12T11:08:14.199Z,22.60
2023-05-12T11:09:17.731Z,22.60
2023-05-12T11:10:21.934Z,22.70
2023-05-12T11:11:25.209Z,22.70
2023-05-12T11:12:33.166Z,22.80
2023-05-12T11:13:36.083Z,22.80
2023-05-12T11:14:40.893Z,23.00
2023-05-12T11:15:45.085Z,23.00
2023-05-12T11:16:47.781Z,23.00
2023-05-12T11:17:50.373Z,22.90
2023-05-12T11:19:04.038Z,22.90
2023-05-12T11:20:09.791Z,22.80
2023-05-12T11:21:12.466Z,22.70
2023-05-12T11:22:22.052Z,22.70
2023-05-12T11:23:28.732Z,22.60
2023-05-12T11:24:31.314Z,22.60
2023-05-12T11:25:34.279Z,22.50
2023-05-12T11:26:36.938Z,22.50
2023-05-12T11:27:42.568Z,22.50
2023-05-12T11:28:45.264Z,22.60
2023-05-12T11:30:01.903Z,22.60
2023-05-12T11:31:05.014Z,22.70
2023-05-12T11:32:10.289Z,22.70
2023-05-12T11:33:13.850Z,22.80
2023-05-12T11:34:20.431Z,22.90
2023-05-12T11:35:23.232Z,22.90
2023-05-12T11:36:26.083Z,23.00
2023-05-12T11:37:28.688Z,23.00
2023-05-12T11:38:31.695Z,22.80
2023-05-12T11:39:34.369Z,22.80
2023-05-12T11:40:41.297Z,22.70
2023-05-12T11:41:44.863Z,22.70
2023-05-12T11:42:51.694Z,22.70
2023-05-12T11:43:54.356Z,22.70
2023-05-12T11:44:56.948Z,22.70
2023-05-12T11:45:59.955Z,22.80
2023-05-12T11:47:13.318Z,22.70
2023-05-12T11:48:16.958Z,22.60
2023-05-12T11:49:19.529Z,22.60
2023-05-12T11:50:25.157Z,22.60
2023-05-12T11:51:27.997Z,22.50
2023-05-12T11:52:30.596Z,22.50
2023-05-12T11:53:35.416Z,22.60
2023-05-12T11:54:38.121Z,22.60
2023-05-12T11:55:56.862Z,22.70
2023-05-12T11:57:01.304Z,22.70
2023-05-12T11:58:04.571Z,22.80
2023-05-12T11:59:07.485Z,22.90
2023-05-12T12:00:10.735Z,23.00
2023-05-12T12:01:13.311Z,23.10
2023-05-12T12:02:21.691Z,23.30
2023-05-12T12:03:25.318Z,23.40
2023-05-12T12:04:41.899Z,23.40
2023-05-12T12:06:02.719Z,23.50
2023-05-12T12:07:06.873Z,23.40
2023-05-12T12:08:13.511Z,23.40
2023-05-12T12:09:16.113Z,23.40
2023-05-12T12:10:19.459Z,23.40
2023-05-12T12:11:24.249Z,23.40
2023-05-12T12:12:26.819Z,23.40
2023-05-12T12:13:29.515Z,23.30
2023-05-12T12:14:33.537Z,23.20
2023-05-12T12:15:36.276Z,23.20
2023-05-12T12:16:39.126Z,23.10
2023-05-12T12:17:41.788Z,23.10
2023-05-12T12:18:44.533Z,23.00
2023-05-12T12:19:47.832Z,22.90
2023-05-12T12:20:50.680Z,22.80
2023-05-12T12:21:53.754Z,22.80
2023-05-12T12:22:56.390Z,22.80
2023-05-12T12:23:59.115Z,22.80
2023-05-12T12:25:03.302Z,22.80
2023-05-12T12:26:05.879Z,22.80
2023-05-12T12:27:08.453Z,22.80
2023-05-12T12:28:11.081Z,22.80
2023-05-12T12:29:13.857Z,22.90
2023-05-12T12:30:17.125Z,22.90
2023-05-12T12:31:19.690Z,22.90
2023-05-12T12:32:22.559Z,23.00
2023-05-12T12:33:25.201Z,23.10
2023-05-12T12:34:27.762Z,23.10
2023-05-12T12:35:30.618Z,23.10
2023-05-12T12:36:33.652Z,23.10
2023-05-12T12:37:36.269Z,23.10
2023-05-12T12:38:39.117Z,23.20
2023-05-12T12:39:41.692Z,23.20
2023-05-12T12:40:44.279Z,23.20
2023-05-12T12:41:48.174Z,23.10
2023-05-12T12:42:50.786Z,23.10
2023-05-12T12:43:53.537Z,23.10
2023-05-12T12:44:56.138Z,23.10
2023-05-12T12:45:58.852Z,23.00
2023-05-12T12:47:01.551Z,23.00
2023-05-12T12:48:04.483Z,23.00
2023-05-12T12:49:07.371Z,23.10
2023-05-12T12:50:10.689Z,23.10
2023-05-12T12:51:13.685Z,23.10
2023-05-12T12:52:16.309Z,23.10
2023-05-12T12:53:18.891Z,23.00
2023-05-12T12:54:21.713Z,23.00
2023-05-12T12:55:24.452Z,23.00
2023-05-12T12:56:27.086Z,23.00
2023-05-12T12:57:29.726Z,23.00
2023-05-12T12:58:32.691Z,23.10
2023-05-12T12:59:35.301Z,23.10
2023-05-12T13:00:38.040Z,23.20
2023-05-12T13:01:40.709Z,23.40
2023-05-12T13:02:43.462Z,23.40
2023-05-12T13:03:46.092Z,23.50
2023-05-12T13:04:48.652Z,23.50
2023-05-12T13:05:51.310Z,23.60
2023-05-12T13:06:53.917Z,23.50
2023-05-12T13:07:56.513Z,23.50
2023-05-12T13:08:59.111Z,23.50
2023-05-12T13:10:02.014Z,23.50
2023-05-12T13:11:04.668Z,23.50
2023-05-12T13:12:08.032Z,23.60
2023-05-12T13:13:13.380Z,23.60
2023-05-12T13:14:16.218Z,23.70
2023-05-12T13:15:19.646Z,23.60
2023-05-12T13:16:23.278Z,23.60
2023-05-12T13:17:26.470Z,23.60
2023-05-12T13:18:29.170Z,23.50
2023-05-12T13:19:31.970Z,23.50
2023-05-12T13:20:34.569Z,23.40
2023-05-12T13:21:37.817Z,23.30
2023-05-12T13:22:44.328Z,23.20
2023-05-12T13:23:46.960Z,23.20
2023-05-12T13:24:49.553Z,23.20
2023-05-12T13:25:52.206Z,23.30
2023-05-12T13:26:54.810Z,23.40
2023-05-12T13:27:57.388Z,23.40
2023-05-12T13:28:59.996Z,23.50
2023-05-12T13:30:04.932Z,23.60
2023-05-12T13:31:07.920Z,23.70
2023-05-12T13:32:11.136Z,23.90
2023-05-12T13:33:13.879Z,24.00
2023-05-12T13:34:16.676Z,24.10
2023-05-12T13:35:19.618Z,24.20
2023-05-12T13:36:22.410Z,24.20
2023-05-12T13:37:25.120Z,24.20
2023-05-12T13:38:27.683Z,24.10
2023-05-12T13:39:30.266Z,24.00
2023-05-12T13:40:33.006Z,24.00
2023-05-12T13:41:35.936Z,23.90
2023-05-12T13:42:38.907Z,23.80
2023-05-12T13:43:41.460Z,23.70
2023-05-12T13:44:44.048Z,23.50
2023-05-12T13:45:46.774Z,23.40
2023-05-12T13:46:49.427Z,23.30
2023-05-12T13:47:52.074Z,23.20
2023-05-12T13:48:54.739Z,23.20
2023-05-12T13:49:57.385Z,23.20